KTEX/TEX METAR and TAF weather

Enter ICAO airport designator
Station Type Date Time Source
KTEX METAR 2021/01/27 13:35 UTC NOAA

KTEX 271335Z AUTO 14007KT 10SM CLR M12/M21 A3012 RMK AO2


Station Type Date Time Source
KTEX Decoded METAR 2021/01/27 13:35 UTC NOAA

Telluride, Telluride Regional Airport, CO, United States (KTEX) 37-57-14N 107-54-31W
Jan 27, 2021 - 08:35 AM EST / 2021.01.27 1335 UTC
Wind: from the SE (140 degrees) at 8 MPH (7 KT):0
Visibility: 10 mile(s):0
Sky conditions: clear
Temperature: 10 F (-12 C)
Windchill: -2 F (-19 C):1
Dew Point: -5 F (-21 C)
Relative Humidity: 47%
Pressure (altimeter): 30.12 in. Hg (1019 hPa)
ob: KTEX 271335Z AUTO 14007KT 10SM CLR M12/M21 A3012 RMK AO2
cycle: 13

Station Type Date Time Source
KTEX TAF 2021/01/27 12:27 UTC NOAA

TAF KTEX 271125Z 2712/2812 14006KT P6SM SKC
FM271900 22006KT P6SM BKN080
FM280000 15006KT P6SM SCT060 BKN080
FM280200 15010KT P6SM BKN060

Example: see airport list